Time;durP1;ratioP1;P1;durP2;ratioP2;P2;SDS_P1;SDS_P2;PMS_P1;PMS_P2;Temp;Humidity;BMP_temperature;BMP_pressure;BME280_temperature;BME280_humidity;BME280_pressure;Samples;Min_cycle;Max_cycle;Signal;HPM_P1;HPM_P2
2023/08/08 00:02:50;;;;;;;3.88;3.58;;;10.60;99.90;;;11.09;100.00;98099.69;10356764;28;20297;-67
2023/08/08 00:07:53;;;;;;;4.07;3.67;;;10.50;99.90;;;11.16;100.00;98106.94;10356610;28;20226;-69
2023/08/08 00:12:58;;;;;;;3.90;3.38;;;10.50;99.90;;;11.18;100.00;98105.34;10358257;28;20232;-70
2023/08/08 00:18:01;;;;;;;3.53;3.15;;;10.50;99.90;;;11.31;100.00;98108.63;10357484;28;20234;-69
2023/08/08 00:23:05;;;;;;;3.50;3.30;;;10.50;99.90;;;10.95;100.00;98103.09;10355121;28;20229;-68
2023/08/08 00:28:09;;;;;;;3.75;3.33;;;10.30;99.90;;;10.98;100.00;98100.72;10356519;28;20234;-68
2023/08/08 00:33:12;;;;;;;2.92;2.72;;;10.30;99.90;;;11.02;100.00;98100.13;10359234;28;20309;-68
2023/08/08 00:38:18;;;;;;;3.70;3.40;;;10.30;99.90;;;11.00;100.00;98106.84;10360149;28;20241;-68
2023/08/08 00:43:23;;;;;;;3.28;3.08;;;10.30;99.90;;;10.98;100.00;98100.72;10357657;28;20237;-68
2023/08/08 00:48:26;;;;;;;3.10;2.90;;;10.30;99.90;;;10.97;100.00;98092.19;10360419;28;20226;-69
2023/08/08 00:53:31;;;;;;;3.70;3.38;;;10.30;99.90;;;11.06;100.00;98096.97;10354646;28;20720;-68
2023/08/08 00:58:36;;;;;;;3.80;3.45;;;10.30;99.90;;;11.06;100.00;98096.97;10355216;28;20726;-69
2023/08/08 01:03:39;;;;;;;3.35;3.05;;;10.30;99.90;;;10.83;100.00;98088.81;10356947;28;20219;-69
2023/08/08 01:08:51;;;;;;;3.60;3.30;;;10.20;99.90;;;10.95;100.00;98095.44;10353978;28;20234;-69
2023/08/08 01:13:57;;;;;;;3.97;3.03;;;10.30;99.90;;;11.11;100.00;98094.69;10355997;28;20230;-70
2023/08/08 01:19:00;;;;;;;3.45;3.20;;;10.50;99.90;;;11.19;100.00;98086.66;10359989;28;20378;-69
2023/08/08 01:24:19;;;;;;;3.20;2.70;;;10.50;99.90;;;11.24;100.00;98076.66;10358407;28;20226;-69
2023/08/08 01:29:23;;;;;;;3.40;3.08;;;10.60;99.90;;;11.34;100.00;98081.53;10357424;28;20324;-69
2023/08/08 01:34:26;;;;;;;3.83;3.20;;;10.60;99.90;;;11.34;100.00;98065.31;10355400;28;20222;-70
2023/08/08 01:39:33;;;;;;;3.10;2.80;;;10.60;99.90;;;11.27;100.00;98080.31;10357926;28;20229;-69
2023/08/08 01:44:39;;;;;;;3.47;2.90;;;10.60;99.90;;;11.25;100.00;98071.66;10356142;28;20305;-69
2023/08/08 01:49:42;;;;;;;3.95;3.53;;;10.60;99.90;;;11.27;100.00;98070.09;10363623;28;20708;-68
2023/08/08 01:54:47;;;;;;;3.50;3.20;;;10.60;99.90;;;11.43;100.00;98061.59;10364216;28;20230;-69
2023/08/08 01:59:50;;;;;;;3.80;3.30;;;10.80;99.90;;;11.41;100.00;98050.38;10370528;28;20225;-69
2023/08/08 02:04:53;;;;;;;3.53;3.22;;;10.70;99.90;;;11.45;100.00;98052.31;10358160;28;20228;-69
2023/08/08 02:09:58;;;;;;;3.60;3.08;;;10.80;99.90;;;11.49;100.00;98055.94;10361103;28;20233;-70
2023/08/08 02:15:01;;;;;;;3.72;3.42;;;10.80;99.90;;;11.54;100.00;98049.41;10366116;28;20721;-70
2023/08/08 02:20:06;;;;;;;3.30;3.00;;;10.80;99.90;;;11.67;100.00;98036.47;10373205;28;20228;-70
2023/08/08 02:25:11;;;;;;;2.90;2.70;;;10.90;99.90;;;11.55;100.00;98051.16;10366086;28;20233;-69
2023/08/08 02:30:15;;;;;;;3.35;3.05;;;10.90;99.90;;;11.49;100.00;98046.56;10366800;28;20237;-70
2023/08/08 02:35:19;;;;;;;3.33;2.90;;;10.90;99.90;;;11.48;100.00;98051.63;10363868;28;20248;-68
2023/08/08 02:40:24;;;;;;;2.90;2.70;;;10.80;99.90;;;11.66;100.00;98050.06;10362222;28;20235;-68
2023/08/08 02:45:27;;;;;;;3.40;3.10;;;10.90;99.90;;;11.63;100.00;98052.47;10361597;28;20671;-69
2023/08/08 02:50:30;;;;;;;4.07;3.78;;;11.00;99.90;;;11.80;100.00;98049.97;10358641;28;20613;-70
2023/08/08 02:55:37;;;;;;;3.00;2.83;;;11.10;99.90;;;11.76;100.00;98045.47;10370324;28;20230;-69
2023/08/08 03:00:40;;;;;;;4.38;3.28;;;11.10;99.90;;;11.84;100.00;98037.41;10364997;28;20230;-68
2023/08/08 03:05:45;;;;;;;3.80;3.50;;;11.20;99.90;;;11.83;100.00;98038.22;10362623;28;20694;-69
2023/08/08 03:10:50;;;;;;;3.30;3.10;;;11.20;99.90;;;11.73;100.00;98035.94;10362244;28;20237;-68
2023/08/08 03:15:54;;;;;;;5.15;3.10;;;11.10;99.90;;;11.66;100.00;98029.59;10364148;28;20240;-68
2023/08/08 03:20:57;;;;;;;5.30;3.20;;;11.00;99.90;;;11.63;100.00;98034.53;10359508;28;20230;-68
2023/08/08 03:26:01;;;;;;;4.50;3.25;;;11.00;99.90;;;11.74;100.00;98032.59;10360299;28;20224;-70
2023/08/08 03:31:04;;;;;;;3.42;3.13;;;11.00;99.90;;;11.67;100.00;98031.34;10359159;28;20226;-70
2023/08/08 03:36:08;;;;;;;3.85;3.47;;;11.00;99.90;;;11.67;100.00;98039.03;10359362;28;20373;-71
2023/08/08 03:41:13;;;;;;;3.80;3.50;;;11.00;99.90;;;11.71;100.00;98032.41;10359933;28;20252;-70
2023/08/08 03:46:16;;;;;;;3.75;3.45;;;11.00;99.90;;;11.72;100.00;98029.94;10364085;28;20226;-68
2023/08/08 03:51:19;;;;;;;3.40;3.10;;;11.10;99.90;;;11.77;100.00;98039.56;10363998;28;20234;-68
2023/08/08 03:56:24;;;;;;;3.95;3.33;;;11.10;99.90;;;11.80;100.00;98042.28;10360048;28;20240;-68
2023/08/08 04:01:27;;;;;;;3.30;3.10;;;11.10;99.90;;;11.72;100.00;98040.16;10362941;28;20238;-68
2023/08/08 04:06:30;;;;;;;3.40;3.20;;;11.00;99.90;;;11.69;100.00;98039.13;10354978;28;20284;-69
2023/08/08 04:11:35;;;;;;;3.22;2.92;;;11.00;99.90;;;11.72;100.00;98029.94;10357646;28;20230;-69
2023/08/08 04:16:39;;;;;;;3.50;3.20;;;11.10;99.90;;;11.82;100.00;98043.25;10356439;28;20637;-68
2023/08/08 04:21:42;;;;;;;3.20;3.00;;;11.20;99.90;;;11.93;100.00;98042.19;10358695;28;20241;-68
2023/08/08 04:26:47;;;;;;;3.40;3.10;;;11.20;99.90;;;12.03;100.00;98046.13;10358744;28;20222;-69
2023/08/08 04:31:50;;;;;;;4.00;3.10;;;11.30;99.90;;;12.07;100.00;98048.06;10351710;28;20601;-68
2023/08/08 04:36:53;;;;;;;4.10;2.88;;;11.30;99.90;;;12.08;100.00;98044.72;10348209;28;20222;-67
2023/08/08 04:41:57;;;;;;;3.40;3.10;;;11.40;99.90;;;12.21;100.00;98042.00;10339021;28;20238;-68
2023/08/08 04:47:02;;;;;;;3.55;3.30;;;11.60;99.90;;;12.37;100.00;98043.69;10342012;28;20800;-69
2023/08/08 04:52:06;;;;;;;4.25;3.70;;;11.70;99.90;;;12.33;100.00;98036.63;10352643;28;20240;-69
2023/08/08 04:57:11;;;;;;;3.67;3.38;;;11.60;99.90;;;12.41;100.00;98050.75;10341360;28;20294;-69
2023/08/08 05:02:14;;;;;;;3.80;3.50;;;11.70;99.90;;;12.43;100.00;98050.84;10349855;28;20223;-67
2023/08/08 05:07:17;;;;;;;4.95;3.70;;;11.70;99.90;;;12.59;100.00;98046.59;10352742;28;20233;-69
2023/08/08 05:12:21;;;;;;;3.90;3.60;;;11.80;99.90;;;12.52;100.00;98049.63;10351481;28;20248;-69
2023/08/08 05:17:25;;;;;;;4.47;3.08;;;11.80;99.90;;;12.48;100.00;98041.72;10347704;28;20236;-68
2023/08/08 05:22:28;;;;;;;3.47;3.28;;;11.80;99.90;;;12.55;100.00;98039.53;10357627;28;20231;-68
2023/08/08 05:27:32;;;;;;;3.08;2.88;;;11.90;99.90;;;12.74;100.00;98043.06;10357776;28;20261;-69
2023/08/08 05:32:36;;;;;;;3.50;3.30;;;12.10;99.90;;;12.84;100.00;98038.44;10360933;28;20237;-68
2023/08/08 05:37:39;;;;;;;3.40;3.20;;;12.20;99.90;;;13.42;100.00;98040.53;10356991;28;20320;-69
2023/08/08 05:42:43;;;;;;;3.45;3.17;;;12.90;99.90;;;14.60;100.00;98027.16;10356923;28;20226;-69
2023/08/08 05:47:46;;;;;;;5.00;3.03;;;14.10;99.90;;;16.06;91.60;98028.88;10360930;28;20241;-69
2023/08/08 05:52:50;;;;;;;2.80;2.60;;;15.60;99.90;;;17.03;84.15;98038.47;10362972;28;20664;-69
2023/08/08 05:57:54;;;;;;;3.70;2.95;;;15.90;99.90;;;17.38;81.07;98031.03;10366968;28;20235;-69
2023/08/08 06:02:57;;;;;;;5.10;3.28;;;16.00;99.90;;;17.74;78.61;98038.19;10362446;28;20318;-69
2023/08/08 06:08:01;;;;;;;2.60;2.45;;;16.40;99.90;;;18.46;75.07;98043.03;10362182;28;20238;-67
2023/08/08 06:13:05;;;;;;;2.67;2.33;;;16.90;99.90;;;18.85;70.54;98047.59;10410150;28;20236;-67
2023/08/08 06:18:08;;;;;;;2.10;2.00;;;17.00;99.90;;;18.24;70.79;98049.28;10403024;28;20230;-69
2023/08/08 06:23:12;;;;;;;1.90;1.80;;;16.70;99.90;;;17.73;72.66;98049.38;10406853;28;20234;-69
2023/08/08 06:28:16;;;;;;;2.25;1.95;;;16.60;99.90;;;18.64;69.54;98029.72;10407035;28;20244;-69
2023/08/08 06:33:19;;;;;;;2.13;2.00;;;17.00;99.90;;;18.97;67.63;98036.66;10397602;28;20236;-69
2023/08/08 06:38:23;;;;;;;2.60;1.90;;;17.40;99.90;;;19.94;62.18;98027.00;10395691;28;20245;-68
2023/08/08 06:43:28;;;;;;;2.50;2.00;;;18.40;99.90;;;20.82;58.56;98020.25;10396257;28;20239;-69
2023/08/08 06:48:31;;;;;;;2.97;1.98;;;19.10;99.90;;;21.69;55.34;98022.63;10406593;28;20229;-65
2023/08/08 06:53:34;;;;;;;1.83;1.73;;;19.80;99.90;;;21.87;54.52;98028.13;10398556;28;20236;-68
2023/08/08 06:58:39;;;;;;;2.22;2.10;;;20.10;99.90;;;22.08;52.89;98019.75;10395001;28;20233;-66
2023/08/08 07:03:43;;;;;;;2.17;1.77;;;20.30;99.90;;;22.38;53.38;98014.13;10401706;28;20230;-68
2023/08/08 07:08:46;;;;;;;2.38;1.77;;;20.50;99.90;;;22.80;51.21;98010.25;10400856;28;20332;-69
2023/08/08 07:13:51;;;;;;;2.10;1.70;;;20.90;99.90;;;22.95;52.04;98004.41;10401543;28;20257;-69
2023/08/08 07:18:54;;;;;;;2.30;2.00;;;21.10;99.90;;;22.79;52.88;98013.75;10396878;28;20275;-66
2023/08/08 07:23:58;;;;;;;1.80;1.70;;;21.10;99.90;;;23.10;50.97;98008.88;10408077;28;20221;-67
2023/08/08 07:29:05;;;;;;;1.90;1.80;;;21.10;99.90;;;23.08;51.27;98013.19;10403579;28;20221;-72
2023/08/08 07:34:09;;;;;;;2.15;2.05;;;21.20;99.90;;;23.43;49.61;98007.44;10400144;28;20241;-70
2023/08/08 07:39:12;;;;;;;2.15;1.85;;;21.40;99.90;;;23.39;49.97;98012.63;10399588;28;20256;-68
2023/08/08 07:44:17;;;;;;;2.33;2.10;;;21.40;99.90;;;23.95;48.94;98010.44;10400383;28;20725;-68
2023/08/08 07:49:20;;;;;;;3.30;2.10;;;21.50;99.90;;;24.39;47.03;98000.25;10404552;28;20232;-68
2023/08/08 07:54:23;;;;;;;2.45;1.77;;;22.00;99.60;;;24.35;46.97;97993.28;10395287;28;20225;-69
2023/08/08 07:59:27;;;;;;;2.35;1.65;;;22.00;99.10;;;24.16;47.87;97994.06;10402046;28;20239;-67
2023/08/08 08:04:30;;;;;;;2.70;1.95;;;22.00;99.90;;;23.43;48.15;97994.38;10396364;28;20224;-68
2023/08/08 08:09:34;;;;;;;3.10;1.95;;;21.70;98.70;;;23.10;49.78;97998.44;10399282;28;20237;-69
2023/08/08 08:14:38;;;;;;;2.30;2.10;;;21.60;99.50;;;23.38;49.66;97984.81;10399674;28;20221;-67
2023/08/08 08:19:42;;;;;;;2.25;2.08;;;22.00;99.50;;;23.55;50.10;97978.81;10398621;28;20312;-67
2023/08/08 08:24:45;;;;;;;2.38;1.77;;;22.40;98.80;;;23.69;49.10;97984.13;10400590;28;20231;-69
2023/08/08 08:29:50;;;;;;;2.28;1.83;;;22.50;98.60;;;23.94;49.89;97974.78;10403427;28;20606;-69
2023/08/08 08:34:53;;;;;;;3.03;1.77;;;22.60;98.80;;;23.63;48.95;97974.53;10397496;28;20236;-69
2023/08/08 08:39:56;;;;;;;2.15;1.60;;;22.40;98.10;;;23.54;48.97;97971.84;10401183;28;20232;-69
2023/08/08 08:45:04;;;;;;;2.63;2.10;;;22.20;97.90;;;23.36;50.35;97968.25;10403885;28;20213;-68
2023/08/08 08:50:08;;;;;;;2.97;1.83;;;21.80;99.80;;;23.29;49.73;97974.28;10401444;28;20249;-68
2023/08/08 08:55:11;;;;;;;2.38;1.98;;;21.90;98.60;;;23.43;49.37;97965.69;10407880;28;20697;-68
2023/08/08 09:00:17;;;;;;;3.13;2.08;;;22.20;98.20;;;23.48;46.80;97964.00;10404586;28;20428;-68
2023/08/08 09:05:23;;;;;;;2.78;2.00;;;22.20;96.50;;;23.18;47.98;97962.88;10406041;28;20253;-69
2023/08/08 09:10:27;;;;;;;1.90;1.80;;;22.20;96.50;;;23.23;47.19;97963.78;10407560;28;20610;-67
2023/08/08 09:15:32;;;;;;;3.00;2.17;;;22.10;96.20;;;23.10;48.04;97967.16;10410831;28;20225;-68
2023/08/08 09:20:36;;;;;;;3.05;2.15;;;22.00;96.20;;;23.11;48.05;97963.69;10406947;28;20617;-67
2023/08/08 09:25:39;;;;;;;2.00;1.80;;;21.90;96.50;;;22.81;48.12;97959.91;10403183;28;20232;-68
2023/08/08 09:30:44;;;;;;;2.78;2.00;;;21.30;96.90;;;22.76;48.70;97961.56;10407129;28;20225;-67
2023/08/08 09:35:48;;;;;;;2.13;1.83;;;21.70;96.50;;;23.14;48.31;97955.88;10405645;28;20234;-68
2023/08/08 09:40:52;;;;;;;4.00;2.25;;;22.10;96.70;;;23.40;47.55;97940.44;10406212;28;20221;-67
2023/08/08 09:45:56;;;;;;;2.30;2.10;;;22.20;96.00;;;23.28;46.13;97946.44;10405828;28;20233;-65
2023/08/08 09:51:00;;;;;;;2.28;2.00;;;22.20;94.70;;;23.15;46.64;97947.22;10403360;28;20229;-67
2023/08/08 09:56:05;;;;;;;2.40;1.92;;;21.70;95.60;;;22.75;47.77;97933.78;10403215;28;20690;-68
2023/08/08 10:01:12;;;;;;;2.30;1.88;;;21.70;95.80;;;23.10;46.72;97936.72;10404789;28;20243;-67
2023/08/08 10:06:16;;;;;;;2.70;2.10;;;21.90;95.30;;;23.21;46.63;97933.31;10406924;28;20228;-68
2023/08/08 10:11:22;;;;;;;3.33;1.95;;;22.00;95.50;;;23.21;46.21;97929.00;10401593;28;20287;-68
2023/08/08 10:16:27;;;;;;;2.47;2.03;;;22.10;94.80;;;23.23;46.29;97922.03;10402273;28;20705;-67
2023/08/08 10:21:35;;;;;;;2.60;2.10;;;22.40;94.50;;;23.64;46.90;97918.00;10403915;28;20253;-68
2023/08/08 10:26:53;;;;;;;2.22;2.03;;;23.00;94.70;;;23.87;45.35;97910.34;10404058;28;20232;-68
2023/08/08 10:32:03;;;;;;;2.33;1.83;;;23.20;93.80;;;23.77;44.74;97905.03;10406280;28;20316;-68
2023/08/08 10:37:10;;;;;;;2.00;1.90;;;23.10;92.70;;;23.70;43.61;97913.72;10372885;28;20628;-68
2023/08/08 10:42:19;;;;;;;1.98;1.60;;;22.80;92.00;;;23.72;46.25;97914.63;10361508;28;20232;-69
2023/08/08 10:47:25;;;;;;;2.15;1.80;;;22.90;94.10;;;23.88;42.76;97914.69;10362061;28;20226;-68
2023/08/08 10:52:28;;;;;;;2.17;2.00;;;23.00;91.30;;;23.82;43.86;97916.38;10365622;28;20502;-69
2023/08/08 10:57:32;;;;;;;2.05;1.80;;;22.90;91.90;;;23.72;41.77;97912.00;10362879;28;20230;-69
2023/08/08 11:02:36;;;;;;;2.08;1.88;;;22.80;90.70;;;23.58;42.54;97917.09;10365566;28;20752;-67
2023/08/08 11:07:40;;;;;;;2.72;1.70;;;22.60;91.30;;;23.57;43.88;97911.84;10362947;28;20285;-68
2023/08/08 11:12:43;;;;;;;2.08;1.88;;;22.60;91.90;;;23.69;42.25;97898.00;10361620;28;20226;-68
2023/08/08 11:17:47;;;;;;;2.40;2.08;;;23.00;90.50;;;23.57;43.43;97896.19;10365359;28;20231;-66
2023/08/08 11:22:55;;;;;;;2.35;1.77;;;22.60;91.50;;;23.74;42.02;97904.16;10362992;28;20245;-67
2023/08/08 11:27:59;;;;;;;1.88;1.60;;;23.00;90.40;;;23.95;41.87;97900.78;10370408;28;20234;-69
2023/08/08 11:33:04;;;;;;;1.85;1.73;;;23.10;90.20;;;24.13;41.83;97893.03;10364228;28;20230;-67
2023/08/08 11:38:10;;;;;;;1.67;1.58;;;23.30;90.10;;;24.03;41.70;97896.47;10360493;28;20723;-69
2023/08/08 11:43:14;;;;;;;1.83;1.60;;;23.10;90.30;;;24.36;38.83;97884.41;10361518;28;20226;-68
2023/08/08 11:48:22;;;;;;;2.25;1.73;;;23.50;85.00;;;24.10;40.91;97882.56;10362375;28;20229;-69
2023/08/08 11:53:25;;;;;;;2.20;1.88;;;23.20;87.70;;;23.99;40.13;97879.06;10358889;28;20229;-68
2023/08/08 11:58:28;;;;;;;2.30;1.60;;;23.00;88.00;;;23.82;41.33;97879.84;10360857;28;20226;-67
2023/08/08 12:03:33;;;;;;;1.98;1.63;;;23.00;89.30;;;23.95;40.56;97879.88;10367509;28;20222;-68
2023/08/08 12:08:36;;;;;;;1.83;1.73;;;23.30;87.70;;;23.85;39.86;97871.16;10356614;28;20319;-69
2023/08/08 12:13:41;;;;;;;2.30;1.58;;;22.80;87.40;;;23.74;39.72;97875.44;10358129;28;20241;-68
2023/08/08 12:18:45;;;;;;;2.63;1.90;;;22.70;86.20;;;23.51;39.13;97870.94;10361802;28;20764;-69
2023/08/08 12:23:49;;;;;;;1.95;1.85;;;22.50;86.30;;;23.59;39.72;97874.47;10363453;28;20254;-69
2023/08/08 12:28:53;;;;;;;3.00;1.70;;;22.50;86.10;;;23.58;40.42;97874.47;10362137;28;20232;-67
2023/08/08 12:33:58;;;;;;;1.80;1.70;;;22.70;87.00;;;23.73;40.04;97863.28;10352326;28;20231;-68
2023/08/08 12:39:01;;;;;;;1.85;1.65;;;22.60;87.20;;;24.12;40.24;97856.44;10362638;28;20222;-68
2023/08/08 12:44:05;;;;;;;1.40;1.30;;;23.00;86.80;;;24.13;39.25;97856.47;10361656;28;20316;-68
2023/08/08 12:49:09;;;;;;;2.50;1.90;;;23.30;84.30;;;24.24;40.10;97861.72;10357754;28;20334;-68
2023/08/08 12:54:12;;;;;;;2.22;1.52;;;23.30;86.80;;;24.37;36.43;97860.88;10359709;28;20241;-68
2023/08/08 12:59:15;;;;;;;2.45;1.60;;;23.20;81.40;;;24.35;38.21;97853.91;10358187;28;20234;-67
2023/08/08 13:04:20;;;;;;;2.00;1.90;;;23.40;83.10;;;24.35;39.00;97852.19;10363911;28;20237;-70
2023/08/08 13:09:23;;;;;;;3.67;1.73;;;23.30;85.30;;;24.24;38.45;97843.44;10352291;28;20650;-69
2023/08/08 13:14:26;;;;;;;2.35;1.60;;;23.30;83.60;;;24.49;36.63;97847.00;10357682;28;20237;-67
2023/08/08 13:19:31;;;;;;;1.73;1.63;;;23.40;80.90;;;24.27;37.17;97839.09;10355282;28;20234;-69
2023/08/08 13:24:34;;;;;;;1.80;1.70;;;23.30;81.60;;;24.04;38.39;97833.81;10365169;28;20228;-68
2023/08/08 13:29:37;;;;;;;3.15;1.77;;;23.20;82.80;;;23.95;38.59;97835.50;10369577;28;20783;-67
2023/08/08 13:34:42;;;;;;;2.22;1.50;;;23.00;83.50;;;24.04;38.62;97836.41;10357712;28;20987;-68
2023/08/08 13:39:45;;;;;;;1.85;1.70;;;22.90;83.40;;;24.15;39.11;97832.94;10360871;28;20744;-70
2023/08/08 13:44:49;;;;;;;2.15;1.50;;;23.20;84.10;;;23.78;38.21;97833.72;10361038;28;20332;-70
2023/08/08 13:49:56;;;;;;;1.73;1.63;;;22.80;82.00;;;23.73;39.84;97829.34;10367359;28;20233;-69
2023/08/08 13:54:59;;;;;;;1.80;1.70;;;22.60;85.50;;;23.55;39.16;97828.34;10358410;28;20746;-66
2023/08/08 14:00:02;;;;;;;2.70;2.00;;;22.50;83.90;;;23.43;38.79;97827.41;10363205;28;20234;-69
2023/08/08 14:05:08;;;;;;;1.77;1.67;;;22.40;83.90;;;23.15;40.60;97840.28;10368993;28;20226;-69
2023/08/08 14:10:11;;;;;;;2.08;1.92;;;22.10;86.20;;;23.01;42.00;97839.31;10368951;28;20674;-69
2023/08/08 14:15:14;;;;;;;1.77;1.50;;;22.00;89.20;;;22.82;44.07;97841.72;10370348;28;20282;-69
2023/08/08 14:20:19;;;;;;;2.30;1.83;;;21.80;90.40;;;22.83;43.66;97840.88;10362379;28;20722;-69
2023/08/08 14:25:23;;;;;;;3.72;1.70;;;21.80;90.40;;;22.76;44.24;97835.59;10365398;28;20232;-69
2023/08/08 14:30:27;;;;;;;2.05;1.80;;;21.70;90.80;;;23.06;43.66;97835.84;10366471;28;20237;-69
2023/08/08 14:35:32;;;;;;;2.55;2.10;;;22.20;90.40;;;23.55;43.71;97833.56;10372885;28;20320;-70
2023/08/08 14:40:35;;;;;;;2.50;1.80;;;22.60;90.70;;;23.59;43.61;97835.31;10358535;28;21269;-69
2023/08/08 14:45:40;;;;;;;3.72;2.10;;;22.60;90.60;;;23.58;43.29;97835.34;10357327;28;20875;-67
2023/08/08 14:50:45;;;;;;;2.25;1.90;;;22.60;90.20;;;23.92;43.16;97830.25;10362295;28;20223;-69
2023/08/08 14:55:48;;;;;;;2.10;1.90;;;23.00;90.50;;;23.92;43.38;97838.09;10356627;28;20245;-69
2023/08/08 15:00:51;;;;;;;2.10;1.90;;;22.80;90.30;;;23.98;41.32;97832.88;10365996;28;20232;-69
2023/08/08 15:05:56;;;;;;;2.38;2.17;;;22.90;87.90;;;23.86;41.33;97838.94;10361152;28;20333;-69
2023/08/08 15:10:59;;;;;;;2.03;1.70;;;22.80;88.10;;;23.69;40.77;97846.66;10367504;28;20760;-69
2023/08/08 15:16:03;;;;;;;1.85;1.67;;;22.50;87.30;;;23.20;42.60;97838.56;10357772;28;20871;-70
2023/08/08 15:21:08;;;;;;;2.60;2.38;;;22.10;89.30;;;22.79;43.23;97846.94;10352878;28;20736;-69
2023/08/08 15:26:11;;;;;;;1.95;1.60;;;21.80;89.90;;;22.64;44.42;97838.97;10353494;28;20230;-69
2023/08/08 15:31:15;;;;;;;326.02;296.50;;;21.50;90.70;;;22.59;45.16;97848.50;10359590;28;20245;-68
2023/08/08 15:36:20;;;;;;;8.68;8.02;;;21.50;91.10;;;22.70;45.49;97842.50;10360609;28;20647;-69
2023/08/08 15:41:23;;;;;;;2.40;2.20;;;21.70;92.00;;;22.89;44.92;97842.66;10351195;28;20237;-69
2023/08/08 15:46:27;;;;;;;2.58;2.30;;;21.80;91.30;;;22.74;44.75;97846.00;10368938;28;20232;-69
2023/08/08 15:51:31;;;;;;;3.08;2.63;;;21.50;91.10;;;22.60;45.04;97848.47;10359102;28;20233;-68
2023/08/08 15:56:36;;;;;;;2.58;2.38;;;21.40;91.50;;;22.59;44.77;97848.50;10358933;28;20259;-68
2023/08/08 16:01:39;;;;;;;2.53;1.98;;;21.50;91.00;;;22.40;45.81;97850.03;10363676;28;20234;-68
2023/08/08 16:06:44;;;;;;;2.00;1.80;;;21.30;91.70;;;22.09;45.92;97851.41;10350912;28;20322;-70
2023/08/08 16:11:47;;;;;;;2.03;1.90;;;21.10;91.80;;;22.13;47.32;97851.47;10350302;28;20259;-69
2023/08/08 16:16:50;;;;;;;2.30;2.10;;;21.00;92.60;;;22.04;47.99;97860.03;10342252;28;20237;-71
2023/08/08 16:21:55;;;;;;;2.92;2.20;;;21.10;93.10;;;22.31;47.19;97857.75;10341060;28;20249;-71
2023/08/08 16:26:59;;;;;;;2.75;1.85;;;21.40;92.60;;;22.41;47.58;97850.06;10350165;28;20226;-71
2023/08/08 16:32:03;;;;;;;2.38;2.17;;;21.40;93.10;;;22.52;46.46;97858.00;10350543;28;20796;-72
2023/08/08 16:37:08;;;;;;;2.13;1.75;;;21.40;92.30;;;22.24;46.46;97856.81;10342905;28;20654;-68
2023/08/08 16:42:11;;;;;;;2.72;2.03;;;21.20;92.30;;;21.88;48.08;97863.31;10349999;28;20231;-71
2023/08/08 16:47:18;;;;;;;2.38;2.08;;;20.80;93.20;;;21.74;48.01;97864.84;10341547;28;20317;-71
2023/08/08 16:52:22;;;;;;;2.15;2.00;;;20.80;93.10;;;21.74;49.35;97868.34;10346811;28;20222;-70
2023/08/08 16:57:26;;;;;;;2.40;2.20;;;20.80;94.30;;;21.89;49.22;97870.28;10348439;28;20368;-70
2023/08/08 17:02:29;;;;;;;2.22;2.00;;;20.90;94.10;;;21.75;48.99;97874.44;10349974;28;20226;-71
2023/08/08 17:07:34;;;;;;;2.50;2.15;;;20.70;94.10;;;21.67;48.15;97878.66;10349622;28;20371;-70
2023/08/08 17:12:37;;;;;;;2.20;2.00;;;20.70;93.40;;;21.58;48.48;97877.69;10347988;28;20218;-70
2023/08/08 17:17:40;;;;;;;2.75;2.08;;;20.60;93.50;;;21.66;49.24;97872.59;10356435;28;20611;-70
2023/08/08 17:22:45;;;;;;;2.20;1.85;;;20.60;94.30;;;21.60;49.81;97882.88;10354098;28;20577;-70
2023/08/08 17:27:49;;;;;;;2.42;2.22;;;20.60;94.30;;;21.56;50.22;97891.50;10362557;28;20238;-69
2023/08/08 17:32:52;;;;;;;1.90;1.80;;;20.60;94.80;;;21.57;49.72;97888.91;10359440;28;20222;-69
2023/08/08 17:37:58;;;;;;;2.95;2.08;;;20.50;94.60;;;21.36;49.78;97889.50;10364622;28;20245;-71
2023/08/08 17:43:01;;;;;;;3.05;2.05;;;20.30;94.60;;;21.12;49.08;97895.16;10365824;28;20232;-69
2023/08/08 17:48:05;;;;;;;2.33;2.00;;;20.20;94.30;;;21.11;49.54;97893.41;10365010;28;20231;-69
2023/08/08 17:53:10;;;;;;;1.90;1.80;;;20.00;94.20;;;20.91;49.63;97900.88;10368273;28;20269;-70
2023/08/08 17:58:13;;;;;;;2.15;1.90;;;20.00;94.60;;;20.75;51.05;97888.50;10364331;28;20234;-70
2023/08/08 18:03:16;;;;;;;2.22;1.75;;;19.80;95.40;;;20.67;51.20;97890.94;10358544;28;20788;-69
2023/08/08 18:08:21;;;;;;;2.28;1.92;;;19.70;95.50;;;20.47;52.85;97881.88;10358217;28;20241;-70
2023/08/08 18:13:24;;;;;;;3.35;1.98;;;19.60;96.40;;;20.47;52.60;97887.09;10355662;28;20238;-69
2023/08/08 18:18:27;;;;;;;2.30;2.10;;;19.50;96.40;;;20.23;52.77;97888.38;10345704;28;20800;-70
2023/08/08 18:23:32;;;;;;;2.53;2.30;;;19.30;96.20;;;20.01;53.62;97891.38;10350441;28;20695;-70
2023/08/08 18:28:35;;;;;;;2.35;2.00;;;19.10;96.80;;;19.83;55.27;97889.28;10350789;28;20230;-71
2023/08/08 18:33:39;;;;;;;3.78;2.47;;;18.90;98.20;;;19.64;54.95;97887.97;10356590;28;20226;-70
2023/08/08 18:38:43;;;;;;;2.35;2.00;;;18.80;98.00;;;19.58;56.77;97874.88;10361517;28;20230;-70
2023/08/08 18:43:47;;;;;;;3.55;2.45;;;18.70;99.60;;;19.51;57.83;97862.63;10353459;28;20226;-71
2023/08/08 18:48:50;;;;;;;2.53;2.30;;;18.60;99.90;;;19.41;58.45;97878.81;10365442;28;20236;-70
2023/08/08 18:53:54;;;;;;;2.25;2.03;;;18.40;99.90;;;19.26;59.47;97882.81;10357086;28;20927;-70
2023/08/08 18:58:57;;;;;;;2.60;2.40;;;18.30;99.90;;;19.08;60.04;97888.41;10364740;28;20606;-70
2023/08/08 19:04:01;;;;;;;3.33;3.00;;;18.20;99.90;;;19.00;61.83;97892.56;10357611;28;20635;-70
2023/08/08 19:09:08;;;;;;;3.13;2.20;;;18.10;99.90;;;18.93;62.80;97897.56;10356355;28;20349;-70
2023/08/08 19:14:11;;;;;;;2.35;2.22;;;18.00;99.90;;;18.92;63.29;97901.00;10356201;28;20616;-70
2023/08/08 19:19:14;;;;;;;2.40;2.00;;;18.00;99.90;;;18.89;64.78;97902.66;10360143;28;20898;-70
2023/08/08 19:24:19;;;;;;;2.30;2.10;;;17.90;99.90;;;18.87;66.26;97921.59;10349704;28;20250;-70
2023/08/08 19:29:22;;;;;;;2.58;1.88;;;17.90;99.90;;;18.82;66.44;97910.22;10354298;28;20226;-70
2023/08/08 19:34:25;;;;;;;2.60;2.40;;;17.90;99.90;;;18.77;67.27;97904.06;10362734;28;20234;-70
2023/08/08 19:39:30;;;;;;;3.42;2.67;;;17.80;99.90;;;18.74;69.17;97912.63;10356743;28;20230;-71
2023/08/08 19:44:35;;;;;;;3.10;2.80;;;17.80;99.90;;;18.71;69.89;97912.50;10348833;28;20230;-70
2023/08/08 19:49:39;;;;;;;3.67;2.67;;;17.80;99.90;;;18.62;70.05;97917.44;10355816;28;20230;-70
2023/08/08 19:54:43;;;;;;;5.20;2.53;;;17.70;99.90;;;18.56;72.32;97913.00;10348215;28;20225;-71
2023/08/08 19:59:48;;;;;;;3.00;2.60;;;17.70;99.90;;;18.53;72.51;97918.09;10362797;28;20596;-71
2023/08/08 20:04:51;;;;;;;3.80;2.90;;;17.60;99.90;;;18.48;72.93;97913.63;10357875;28;20305;-69
2023/08/08 20:09:56;;;;;;;3.33;2.55;;;17.50;99.90;;;18.46;73.53;97914.47;10352442;28;20226;-71
2023/08/08 20:14:59;;;;;;;4.72;2.95;;;17.50;99.90;;;18.44;74.84;97908.38;10351350;28;20722;-71
2023/08/08 20:20:02;;;;;;;4.97;2.90;;;17.50;99.90;;;18.36;74.80;97903.81;10360685;28;20367;-74
2023/08/08 20:25:08;;;;;;;3.53;2.30;;;17.50;99.90;;;18.39;71.60;97915.13;10356660;28;20232;-72
2023/08/08 20:30:12;;;;;;;3.55;2.58;;;17.50;99.90;;;18.42;73.77;97911.75;10356921;28;20230;-71
2023/08/08 20:35:15;;;;;;;3.22;2.70;;;17.60;99.90;;;18.42;74.76;97907.44;10362099;28;20233;-71
2023/08/08 20:40:20;;;;;;;4.07;2.63;;;17.50;99.90;;;18.19;75.92;97905.94;10358943;28;20309;-71
2023/08/08 20:45:24;;;;;;;2.90;2.70;;;17.30;99.90;;;18.09;76.01;97903.94;10362799;28;20227;-71
2023/08/08 20:50:27;;;;;;;4.22;2.80;;;17.30;99.90;;;18.10;79.01;97905.69;10360349;28;20853;-70
2023/08/08 20:55:32;;;;;;;2.70;2.50;;;17.20;99.90;;;17.95;79.59;97907.00;10366688;28;20721;-70
2023/08/08 21:00:35;;;;;;;2.67;2.45;;;17.10;99.90;;;17.92;81.05;97922.44;10371266;28;20226;-70